createdAt,value
2023-02-15T00:02:00.242Z,2.58
2023-02-15T00:04:46.561Z,2.17
2023-02-15T00:07:16.872Z,2.15
2023-02-15T00:09:44.581Z,2.20
2023-02-15T00:12:12.265Z,2.38
2023-02-15T00:14:39.912Z,2.53
2023-02-15T00:17:07.540Z,2.50
2023-02-15T00:19:35.379Z,2.40
2023-02-15T00:22:03.034Z,2.22
2023-02-15T00:24:30.668Z,2.38
2023-02-15T00:26:58.339Z,2.20
2023-02-15T00:29:26.626Z,2.28
2023-02-15T00:31:54.451Z,2.63
2023-02-15T00:34:24.169Z,2.22
2023-02-15T00:36:51.881Z,2.20
2023-02-15T00:39:19.746Z,2.35
2023-02-15T00:41:48.237Z,2.10
2023-02-15T00:44:15.875Z,2.20
2023-02-15T00:46:43.919Z,2.22
2023-02-15T00:49:11.848Z,1.60
2023-02-15T00:51:40.621Z,1.77
2023-02-15T00:54:08.744Z,1.70
2023-02-15T00:56:36.460Z,2.20
2023-02-15T00:59:04.255Z,2.25
2023-02-15T01:01:32.142Z,1.85
2023-02-15T01:04:00.008Z,1.90
2023-02-15T01:06:27.782Z,1.98
2023-02-15T01:08:55.446Z,2.05
2023-02-15T01:11:24.390Z,2.08
2023-02-15T01:13:59.592Z,1.80
2023-02-15T01:16:29.280Z,2.28
2023-02-15T01:18:57.241Z,2.25
2023-02-15T01:21:25.426Z,1.92
2023-02-15T01:23:53.470Z,1.80
2023-02-15T01:26:21.189Z,1.65
2023-02-15T01:28:50.228Z,1.42
2023-02-15T01:31:18.726Z,1.63
2023-02-15T01:33:46.534Z,1.70
2023-02-15T01:36:14.392Z,1.98
2023-02-15T01:38:42.854Z,1.55
2023-02-15T01:41:27.268Z,1.88
2023-02-15T01:43:56.580Z,1.80
2023-02-15T01:46:54.576Z,1.55
2023-02-15T01:49:28.024Z,1.42
2023-02-15T01:51:55.709Z,1.95
2023-02-15T01:54:29.665Z,1.33
2023-02-15T01:57:00.096Z,1.42
2023-02-15T01:59:28.121Z,1.40
2023-02-15T02:01:59.236Z,1.30
2023-02-15T02:04:30.510Z,1.40
2023-02-15T02:07:00.131Z,1.63
2023-02-15T02:09:27.827Z,1.52
2023-02-15T02:11:55.521Z,1.40
2023-02-15T02:14:24.427Z,1.20
2023-02-15T02:16:58.200Z,1.35
2023-02-15T02:19:25.855Z,1.20
2023-02-15T02:22:06.183Z,1.40
2023-02-15T02:25:07.027Z,1.45
2023-02-15T02:27:58.350Z,1.52
2023-02-15T02:30:32.662Z,1.10
2023-02-15T02:33:15.615Z,1.20
2023-02-15T02:35:49.243Z,1.35
2023-02-15T02:38:29.092Z,1.20
2023-02-15T02:40:56.629Z,1.40
2023-02-15T02:43:44.855Z,1.35
2023-02-15T02:46:16.470Z,1.30
2023-02-15T02:48:44.461Z,1.58
2023-02-15T02:51:12.533Z,1.65
2023-02-15T02:53:40.134Z,1.20
2023-02-15T02:56:10.720Z,1.25
2023-02-15T02:58:47.934Z,1.48
2023-02-15T03:01:40.058Z,1.10
2023-02-15T03:04:18.638Z,1.42
2023-02-15T03:07:07.391Z,1.20
2023-02-15T03:09:44.012Z,1.33
2023-02-15T03:12:18.342Z,1.98
2023-02-15T03:14:55.225Z,1.52
2023-02-15T03:17:27.145Z,1.05
2023-02-15T03:19:58.927Z,1.02
2023-02-15T03:22:41.030Z,1.20
2023-02-15T03:25:18.843Z,0.98
2023-02-15T03:27:49.340Z,1.30
2023-02-15T03:30:21.241Z,1.10
2023-02-15T03:32:49.811Z,1.23
2023-02-15T03:35:17.458Z,1.10
2023-02-15T03:37:53.713Z,1.23
2023-02-15T03:43:41.452Z,1.20
2023-02-15T03:46:13.678Z,0.90
2023-02-15T03:48:46.731Z,1.00
2023-02-15T03:51:37.521Z,0.75
2023-02-15T03:54:05.691Z,0.90
2023-02-15T03:56:35.042Z,1.10
2023-02-15T03:59:21.341Z,1.30
2023-02-15T04:02:00.500Z,1.15
2023-02-15T04:04:35.567Z,1.30
2023-02-15T04:07:05.064Z,1.00
2023-02-15T04:09:51.450Z,0.80
2023-02-15T04:12:19.438Z,1.08
2023-02-15T04:15:05.738Z,1.20
2023-02-15T04:17:33.460Z,1.45
2023-02-15T04:20:19.742Z,1.35
2023-02-15T04:23:06.724Z,0.90
2023-02-15T04:25:34.573Z,0.82
2023-02-15T04:28:03.199Z,1.05
2023-02-15T04:30:30.930Z,1.02
2023-02-15T04:32:58.674Z,1.40
2023-02-15T04:35:26.788Z,1.00
2023-02-15T04:37:54.514Z,1.15
2023-02-15T04:40:22.219Z,1.10
2023-02-15T04:42:50.401Z,1.05
2023-02-15T04:45:18.476Z,1.02
2023-02-15T04:47:46.642Z,0.70
2023-02-15T04:50:14.277Z,1.15
2023-02-15T04:52:41.859Z,1.10
2023-02-15T04:55:09.913Z,1.15
2023-02-15T04:57:37.585Z,1.00
2023-02-15T05:00:05.906Z,1.42
2023-02-15T05:02:33.661Z,1.10
2023-02-15T05:05:01.381Z,1.25
2023-02-15T05:07:28.809Z,1.27
2023-02-15T05:09:56.600Z,1.35
2023-02-15T05:12:24.283Z,1.48
2023-02-15T05:14:51.816Z,1.35
2023-02-15T05:17:19.426Z,1.20
2023-02-15T05:19:47.051Z,1.30
2023-02-15T05:22:15.196Z,1.83
2023-02-15T05:25:01.619Z,1.33
2023-02-15T05:27:48.646Z,1.30
2023-02-15T05:30:16.392Z,1.67
2023-02-15T05:32:44.360Z,2.25
2023-02-15T05:35:16.229Z,1.35
2023-02-15T05:37:44.103Z,2.03
2023-02-15T05:40:12.157Z,1.90
2023-02-15T05:42:39.778Z,1.33
2023-02-15T05:45:07.748Z,1.98
2023-02-15T05:47:35.390Z,2.25
2023-02-15T05:50:03.125Z,1.58
2023-02-15T05:52:30.925Z,1.60
2023-02-15T05:54:59.172Z,1.38
2023-02-15T05:57:26.820Z,1.67
2023-02-15T05:59:54.442Z,2.45
2023-02-15T06:02:22.082Z,2.33
2023-02-15T06:04:49.798Z,3.05
2023-02-15T06:07:17.490Z,1.63
2023-02-15T06:09:45.123Z,1.90
2023-02-15T06:12:12.835Z,1.55
2023-02-15T06:14:40.376Z,2.35
2023-02-15T06:17:08.000Z,3.35
2023-02-15T06:19:35.632Z,3.05
2023-02-15T06:22:03.321Z,1.67
2023-02-15T06:24:30.974Z,2.72
2023-02-15T06:26:59.602Z,2.05
2023-02-15T06:29:27.273Z,2.47
2023-02-15T06:31:55.084Z,1.83
2023-02-15T06:34:22.865Z,1.92
2023-02-15T06:36:50.565Z,3.10
2023-02-15T06:39:18.332Z,2.47
2023-02-15T06:41:46.111Z,2.63
2023-02-15T06:44:13.697Z,1.83
2023-02-15T06:46:41.442Z,3.70
2023-02-15T06:49:09.131Z,2.47
2023-02-15T06:51:36.922Z,2.72
2023-02-15T06:54:04.487Z,3.85
2023-02-15T06:56:32.414Z,2.03
2023-02-15T06:59:00.166Z,3.08
2023-02-15T07:01:28.132Z,1.90
2023-02-15T07:03:55.873Z,2.92
2023-02-15T07:06:23.744Z,4.32
2023-02-15T07:08:51.346Z,2.78
2023-02-15T07:11:37.692Z,2.67
2023-02-15T07:14:05.282Z,4.53
2023-02-15T07:16:33.264Z,3.13
2023-02-15T07:19:01.092Z,2.90
2023-02-15T07:21:30.171Z,2.17
2023-02-15T07:24:01.316Z,2.88
2023-02-15T07:26:29.184Z,2.90
2023-02-15T07:28:57.829Z,3.03
2023-02-15T07:31:25.583Z,3.17
2023-02-15T07:33:54.287Z,3.90
2023-02-15T07:36:21.927Z,3.47
2023-02-15T07:38:49.415Z,4.47
2023-02-15T07:41:17.194Z,4.38
2023-02-15T07:43:46.278Z,3.85
2023-02-15T07:46:17.561Z,5.25
2023-02-15T07:48:46.716Z,4.22
2023-02-15T07:51:17.041Z,3.60
2023-02-15T07:53:44.910Z,5.18
2023-02-15T07:56:14.489Z,3.75
2023-02-15T07:58:55.076Z,4.55
2023-02-15T08:01:23.911Z,3.42
2023-02-15T08:03:51.868Z,4.57
2023-02-15T08:06:20.770Z,3.55
2023-02-15T08:08:48.367Z,4.28
2023-02-15T08:11:48.990Z,3.45
2023-02-15T08:14:21.748Z,3.60
2023-02-15T08:16:53.580Z,3.35
2023-02-15T08:19:29.826Z,3.65
2023-02-15T08:21:58.528Z,3.30
2023-02-15T08:24:30.460Z,4.00
2023-02-15T08:26:59.959Z,3.72
2023-02-15T08:29:29.118Z,4.95
2023-02-15T08:32:03.391Z,4.82
2023-02-15T08:34:32.486Z,5.07
2023-02-15T08:37:00.305Z,4.53
2023-02-15T08:39:28.439Z,4.18
2023-02-15T08:41:58.600Z,5.38
2023-02-15T08:44:26.250Z,4.93
2023-02-15T08:46:54.124Z,4.88
2023-02-15T08:49:22.898Z,3.53
2023-02-15T08:51:51.175Z,4.53
2023-02-15T08:54:20.548Z,6.07
2023-02-15T08:56:48.726Z,4.72
2023-02-15T08:59:19.204Z,3.92
2023-02-15T09:01:47.735Z,3.60
2023-02-15T09:04:16.987Z,4.43
2023-02-15T09:06:48.912Z,4.32
2023-02-15T09:09:16.857Z,4.18
2023-02-15T09:11:46.920Z,3.97
2023-02-15T09:16:45.994Z,3.97
2023-02-15T09:19:14.369Z,4.45
2023-02-15T09:21:42.266Z,5.28
2023-02-15T09:24:11.237Z,4.25
2023-02-15T09:26:41.926Z,4.78
2023-02-15T09:29:10.007Z,6.15
2023-02-15T09:31:45.402Z,3.42
2023-02-15T09:34:17.232Z,4.40
2023-02-15T09:36:45.060Z,3.60
2023-02-15T09:39:40.206Z,2.60
2023-02-15T09:42:58.872Z,5.15
2023-02-15T09:45:40.334Z,3.50
2023-02-15T09:48:29.944Z,4.80
2023-02-15T09:51:35.384Z,5.22
2023-02-15T09:54:12.379Z,4.80
2023-02-15T09:56:49.182Z,3.42
2023-02-15T09:59:30.607Z,3.08
2023-02-15T10:02:04.993Z,4.75
2023-02-15T10:05:01.425Z,3.13
2023-02-15T10:07:56.290Z,3.05
2023-02-15T10:13:40.615Z,3.05
2023-02-15T10:16:09.097Z,3.30
2023-02-15T10:18:55.156Z,5.30
2023-02-15T10:21:28.433Z,3.70
2023-02-15T10:24:26.929Z,3.00
2023-02-15T10:27:03.092Z,3.45
2023-02-15T10:29:39.914Z,2.85
2023-02-15T10:32:28.093Z,3.58
2023-02-15T10:35:05.261Z,3.05
2023-02-15T10:38:08.656Z,3.55
2023-02-15T10:41:11.510Z,4.82
2023-02-15T10:43:50.655Z,2.67
2023-02-15T10:46:25.098Z,3.53
2023-02-15T10:48:56.216Z,2.08
2023-02-15T10:51:41.852Z,2.58
2023-02-15T10:54:22.135Z,2.85
2023-02-15T10:57:00.818Z,4.13
2023-02-15T10:59:53.950Z,4.10
2023-02-15T11:02:37.771Z,3.60
2023-02-15T11:05:23.938Z,4.10
2023-02-15T11:07:55.432Z,3.85
2023-02-15T11:10:35.598Z,3.45
2023-02-15T11:13:13.361Z,4.60
2023-02-15T11:16:12.942Z,4.85
2023-02-15T11:19:06.937Z,2.20
2023-02-15T11:21:44.018Z,4.07
2023-02-15T11:24:13.905Z,2.97
2023-02-15T11:26:48.812Z,3.08
2023-02-15T11:29:35.261Z,3.03
2023-02-15T11:32:24.262Z,2.65
2023-02-15T11:35:12.280Z,2.53
2023-02-15T11:38:00.292Z,2.45
2023-02-15T11:40:30.964Z,2.42
2023-02-15T11:43:04.471Z,2.58
2023-02-15T11:45:35.421Z,3.30
2023-02-15T11:48:09.930Z,2.72
2023-02-15T11:50:38.473Z,5.10
2023-02-15T11:53:13.578Z,3.13
2023-02-15T11:55:43.055Z,4.28
2023-02-15T11:58:26.223Z,3.90
2023-02-15T12:01:07.665Z,2.95
2023-02-15T12:03:41.563Z,3.63
2023-02-15T12:06:23.968Z,3.42
2023-02-15T12:09:04.758Z,2.75
2023-02-15T12:11:40.554Z,1.88
2023-02-15T12:14:10.864Z,2.63
2023-02-15T12:16:49.834Z,3.90
2023-02-15T12:19:39.340Z,2.00
2023-02-15T12:22:10.517Z,3.10
2023-02-15T12:24:45.778Z,2.00
2023-02-15T12:27:34.462Z,2.55
2023-02-15T12:30:36.554Z,2.45
2023-02-15T12:33:31.719Z,3.83
2023-02-15T12:36:20.377Z,2.38
2023-02-15T12:39:17.828Z,2.13
2023-02-15T12:42:00.650Z,2.35
2023-02-15T12:44:33.392Z,3.08
2023-02-15T12:47:05.099Z,2.67
2023-02-15T12:49:38.490Z,2.28
2023-02-15T12:52:26.159Z,2.08
2023-02-15T12:55:10.527Z,3.00
2023-02-15T12:57:38.134Z,2.50
2023-02-15T13:00:20.944Z,4.82
2023-02-15T13:02:51.061Z,2.22
2023-02-15T13:05:33.068Z,3.45
2023-02-15T13:08:11.549Z,2.22
2023-02-15T13:10:59.260Z,2.30
2023-02-15T13:13:33.108Z,2.05
2023-02-15T13:16:04.269Z,3.80
2023-02-15T13:18:45.106Z,3.80
2023-02-15T13:21:27.711Z,3.10
2023-02-15T13:24:47.857Z,2.38
2023-02-15T13:27:23.850Z,3.40
2023-02-15T13:30:00.052Z,3.38
2023-02-15T13:35:01.756Z,3.97
2023-02-15T13:37:45.572Z,2.63
2023-02-15T13:40:36.581Z,3.33
2023-02-15T13:43:15.300Z,3.17
2023-02-15T13:45:58.674Z,4.38
2023-02-15T13:48:48.793Z,3.47
2023-02-15T13:51:47.026Z,2.60
2023-02-15T13:54:55.995Z,3.50
2023-02-15T13:57:45.531Z,3.05
2023-02-15T14:00:29.990Z,3.50
2023-02-15T14:03:38.773Z,2.80
2023-02-15T14:06:35.624Z,2.22
2023-02-15T14:09:07.932Z,2.67
2023-02-15T14:11:43.904Z,2.50
2023-02-15T14:14:13.980Z,2.95
2023-02-15T14:17:06.173Z,2.53
2023-02-15T14:19:47.101Z,2.08
2023-02-15T14:22:48.598Z,3.85
2023-02-15T14:25:24.092Z,3.63
2023-02-15T14:28:23.100Z,3.45
2023-02-15T14:30:55.173Z,2.50
2023-02-15T14:33:38.181Z,3.30
2023-02-15T14:36:08.602Z,2.92
2023-02-15T14:38:42.077Z,3.20
2023-02-15T14:41:32.084Z,1.85
2023-02-15T14:44:21.164Z,3.70
2023-02-15T14:47:20.617Z,2.72
2023-02-15T14:49:48.522Z,3.45
2023-02-15T14:52:16.398Z,1.95
2023-02-15T14:54:46.771Z,2.00
2023-02-15T14:57:14.125Z,2.50
2023-02-15T14:59:45.060Z,2.30
2023-02-15T15:02:19.055Z,1.88
2023-02-15T15:05:19.034Z,1.95
2023-02-15T15:07:51.912Z,2.83
2023-02-15T15:10:21.502Z,2.42
2023-02-15T15:12:56.200Z,1.95
2023-02-15T15:15:30.784Z,2.42
2023-02-15T15:18:05.392Z,3.38
2023-02-15T15:20:51.253Z,1.85
2023-02-15T15:23:19.659Z,1.85
2023-02-15T15:26:24.424Z,2.33
2023-02-15T15:28:52.072Z,1.60
2023-02-15T15:31:52.616Z,1.88
2023-02-15T15:35:02.407Z,3.22
2023-02-15T15:37:53.466Z,3.83
2023-02-15T15:40:38.104Z,2.80
2023-02-15T15:43:34.073Z,2.13
2023-02-15T15:46:40.974Z,2.30
2023-02-15T15:49:13.953Z,2.83
2023-02-15T15:51:43.296Z,1.92
2023-02-15T15:54:18.475Z,2.50
2023-02-15T15:56:55.698Z,1.45
2023-02-15T15:59:30.325Z,2.25
2023-02-15T16:02:04.690Z,3.80
2023-02-15T16:04:35.184Z,2.00
2023-02-15T16:07:16.062Z,1.85
2023-02-15T16:09:44.932Z,1.75
2023-02-15T16:12:22.884Z,2.33
2023-02-15T16:14:53.904Z,1.80
2023-02-15T16:17:24.816Z,2.88
2023-02-15T16:19:53.228Z,3.17
2023-02-15T16:22:24.353Z,3.22
2023-02-15T16:25:16.444Z,3.47
2023-02-15T16:27:49.510Z,2.90
2023-02-15T16:30:29.667Z,3.03
2023-02-15T16:33:09.374Z,3.08
2023-02-15T16:35:39.238Z,2.05
2023-02-15T16:38:07.081Z,1.73
2023-02-15T16:40:47.073Z,1.75
2023-02-15T16:43:24.291Z,2.63
2023-02-15T16:45:52.552Z,2.95
2023-02-15T16:48:28.760Z,2.30
2023-02-15T16:50:58.594Z,3.65
2023-02-15T16:53:28.633Z,3.28
2023-02-15T16:58:40.887Z,1.63
2023-02-15T17:01:14.445Z,3.17
2023-02-15T17:03:43.147Z,2.92
2023-02-15T17:06:27.835Z,1.65
2023-02-15T17:09:19.346Z,2.03
2023-02-15T17:11:49.511Z,1.83
2023-02-15T17:16:57.818Z,2.63
2023-02-15T17:19:29.811Z,1.90
2023-02-15T17:21:59.971Z,4.05
2023-02-15T17:24:36.697Z,2.22
2023-02-15T17:27:28.376Z,4.00
2023-02-15T17:30:04.093Z,4.20
2023-02-15T17:32:32.938Z,3.00
2023-02-15T17:35:10.075Z,4.78
2023-02-15T17:37:37.492Z,4.47
2023-02-15T17:40:25.364Z,2.28
2023-02-15T17:42:53.517Z,1.58
2023-02-15T17:45:25.850Z,3.65
2023-02-15T17:47:53.536Z,4.07
2023-02-15T17:50:27.315Z,3.97
2023-02-15T17:52:56.659Z,4.53
2023-02-15T17:55:39.010Z,3.20
2023-02-15T17:58:20.127Z,4.63
2023-02-15T18:01:12.027Z,1.98
2023-02-15T18:04:10.704Z,1.65
2023-02-15T18:07:00.947Z,2.22
2023-02-15T18:09:46.732Z,2.28
2023-02-15T18:12:24.452Z,2.28
2023-02-15T18:14:54.362Z,1.70
2023-02-15T18:17:29.960Z,2.03
2023-02-15T18:19:57.859Z,2.70
2023-02-15T18:22:25.535Z,2.45
2023-02-15T18:24:53.330Z,2.47
2023-02-15T18:27:21.413Z,4.18
2023-02-15T18:29:49.642Z,4.53
2023-02-15T18:32:25.396Z,1.40
2023-02-15T18:34:56.660Z,2.53
2023-02-15T18:37:26.423Z,2.17
2023-02-15T18:39:56.712Z,1.73
2023-02-15T18:42:28.851Z,2.17
2023-02-15T18:45:01.170Z,4.03
2023-02-15T18:47:30.938Z,4.22
2023-02-15T18:49:58.478Z,2.15
2023-02-15T18:52:31.905Z,2.53
2023-02-15T18:55:04.238Z,1.60
2023-02-15T18:57:32.912Z,1.58
2023-02-15T19:00:00.518Z,4.18
2023-02-15T19:02:28.278Z,3.17
2023-02-15T19:04:55.816Z,1.83
2023-02-15T19:07:29.833Z,2.75
2023-02-15T19:10:01.640Z,1.80
2023-02-15T19:12:29.664Z,1.98
2023-02-15T19:14:57.540Z,1.67
2023-02-15T19:17:25.374Z,1.30
2023-02-15T19:19:53.480Z,1.98
2023-02-15T19:22:30.197Z,3.55
2023-02-15T19:25:01.040Z,3.60
2023-02-15T19:27:37.033Z,1.73
2023-02-15T19:30:23.207Z,1.58
2023-02-15T19:32:53.273Z,1.20
2023-02-15T19:35:23.807Z,1.05
2023-02-15T19:37:53.262Z,0.98
2023-02-15T19:40:22.241Z,1.30
2023-02-15T19:42:50.042Z,1.23
2023-02-15T19:45:19.527Z,1.00
2023-02-15T19:47:48.414Z,0.95
2023-02-15T19:50:22.552Z,1.65
2023-02-15T19:52:50.269Z,0.95
2023-02-15T19:55:29.587Z,1.10
2023-02-15T19:57:58.447Z,1.52
2023-02-15T20:00:32.665Z,0.93
2023-02-15T20:03:00.784Z,1.10
2023-02-15T20:05:31.001Z,1.20
2023-02-15T20:07:59.016Z,0.90
2023-02-15T20:10:32.780Z,0.90
2023-02-15T20:13:01.655Z,0.90
2023-02-15T20:15:33.047Z,1.00
2023-02-15T20:18:06.861Z,0.98
2023-02-15T20:20:48.643Z,0.90
2023-02-15T20:23:31.749Z,0.82
2023-02-15T20:26:00.887Z,1.15
2023-02-15T20:28:31.538Z,0.88
2023-02-15T20:30:59.617Z,0.93
2023-02-15T20:33:27.341Z,0.63
2023-02-15T20:35:55.060Z,1.20
2023-02-15T20:38:31.168Z,1.35
2023-02-15T20:41:18.843Z,1.00
2023-02-15T20:43:46.569Z,0.80
2023-02-15T20:46:14.123Z,0.60
2023-02-15T20:48:41.777Z,1.40
2023-02-15T20:51:21.177Z,1.05
2023-02-15T20:53:49.102Z,1.20
2023-02-15T20:56:24.746Z,1.00
2023-02-15T20:58:53.426Z,0.82
2023-02-15T21:01:20.980Z,1.00
2023-02-15T21:03:48.929Z,1.02
2023-02-15T21:06:17.074Z,0.93
2023-02-15T21:08:44.676Z,0.98
2023-02-15T21:11:21.172Z,0.98
2023-02-15T21:13:52.131Z,1.13
2023-02-15T21:16:19.873Z,0.90
2023-02-15T21:18:47.808Z,1.00
2023-02-15T21:21:22.359Z,0.90
2023-02-15T21:23:50.660Z,1.10
2023-02-15T21:26:20.638Z,1.00
2023-02-15T21:28:48.893Z,0.75
2023-02-15T21:31:22.738Z,0.75
2023-02-15T21:33:52.446Z,1.00
2023-02-15T21:36:23.332Z,0.80
2023-02-15T21:38:51.712Z,0.80
2023-02-15T21:41:39.417Z,0.98
2023-02-15T21:44:41.778Z,0.77
2023-02-15T21:47:48.126Z,0.65
2023-02-15T21:50:37.724Z,0.70
2023-02-15T21:53:06.989Z,0.90
2023-02-15T21:55:34.625Z,0.80
2023-02-15T21:58:02.660Z,0.77
2023-02-15T22:00:31.035Z,0.80
2023-02-15T22:03:00.920Z,0.47
2023-02-15T22:05:33.729Z,0.90
2023-02-15T22:08:01.611Z,0.73
2023-02-15T22:10:33.648Z,0.90
2023-02-15T22:13:02.149Z,0.88
2023-02-15T22:15:36.784Z,0.90
2023-02-15T22:18:05.379Z,0.90
2023-02-15T22:20:33.250Z,0.70
2023-02-15T22:23:01.100Z,1.10
2023-02-15T22:25:28.552Z,0.80
2023-02-15T22:27:56.368Z,0.85
2023-02-15T22:30:26.516Z,0.75
2023-02-15T22:32:55.624Z,0.80
2023-02-15T22:35:34.140Z,0.80
2023-02-15T22:38:02.018Z,1.10
2023-02-15T22:40:34.539Z,0.60
2023-02-15T22:43:05.018Z,1.02
2023-02-15T22:45:35.689Z,0.70
2023-02-15T22:48:03.518Z,0.60
2023-02-15T22:50:33.087Z,0.75
2023-02-15T22:53:04.146Z,0.50
2023-02-15T22:55:37.553Z,0.90
2023-02-15T22:58:05.340Z,0.77
2023-02-15T23:00:37.888Z,0.80
2023-02-15T23:03:16.538Z,0.70
2023-02-15T23:05:44.766Z,0.60
2023-02-15T23:08:12.744Z,0.63
2023-02-15T23:10:41.696Z,0.60
2023-02-15T23:13:38.961Z,1.10
2023-02-15T23:16:08.222Z,0.63
2023-02-15T23:18:41.046Z,0.95
2023-02-15T23:21:20.835Z,0.70
2023-02-15T23:23:55.772Z,0.75
2023-02-15T23:26:31.285Z,0.90
2023-02-15T23:29:01.004Z,0.95
2023-02-15T23:31:36.802Z,1.05
2023-02-15T23:34:17.788Z,0.75
2023-02-15T23:36:45.460Z,0.90
2023-02-15T23:39:35.507Z,0.90
2023-02-15T23:42:06.719Z,0.77
2023-02-15T23:44:34.294Z,0.65
2023-02-15T23:47:02.006Z,0.82
2023-02-15T23:49:32.216Z,0.60
2023-02-15T23:51:59.800Z,0.50
2023-02-15T23:54:27.355Z,0.50
2023-02-15T23:56:59.435Z,0.90
2023-02-15T23:59:30.309Z,0.63
